KDTL/DTL METAR and TAF weather

Enter ICAO airport designator
Station Type Date Time Source
KDTL METAR 2019/08/25 18:35 UTC NOAA

KDTL 251835Z AUTO 15015G19KT 7SM DZ SCT004 OVC013 17/16 A2990 RMK AO2


Station Type Date Time Source
KDTL Decoded METAR 2019/08/25 18:35 UTC NOAA

Station name not available
Aug 25, 2019 - 02:35 PM EDT / 2019.08.25 1835 UTC
Wind: from the SSE (150 degrees) at 17 MPH (15 KT) gusting to 22 MPH (19 KT):0
Visibility: 7 mile(s):0
Sky conditions: overcast
Weather: drizzle
Temperature: 62 F (17 C)
Dew Point: 60 F (16 C)
Relative Humidity: 93%
Pressure (altimeter): 29.9 in. Hg (1012 hPa)
ob: KDTL 251835Z AUTO 15015G19KT 7SM DZ SCT004 OVC013 17/16 A2990 RMK AO2
cycle: 18

Station Type Date Time Source
KDTL TAF UTC NOAA

Error!

Example: see airport list